sensor_id;sensor_type;location;lat;lon;timestamp;temperature;humidity
65046;DHT22;54657;52.022;5.534;2023-04-24T00:01:38;11.20;90.60
65046;DHT22;54657;52.022;5.534;2023-04-24T00:04:05;11.20;90.60
65046;DHT22;54657;52.022;5.534;2023-04-24T00:06:32;11.20;90.40
65046;DHT22;54657;52.022;5.534;2023-04-24T00:09:03;11.20;90.40
65046;DHT22;54657;52.022;5.534;2023-04-24T00:11:29;11.20;90.70
65046;DHT22;54657;52.022;5.534;2023-04-24T00:13:56;11.20;90.40
65046;DHT22;54657;52.022;5.534;2023-04-24T00:16:22;11.20;90.30
65046;DHT22;54657;52.022;5.534;2023-04-24T00:18:47;11.20;90.40
65046;DHT22;54657;52.022;5.534;2023-04-24T00:21:14;11.20;90.40
65046;DHT22;54657;52.022;5.534;2023-04-24T00:23:40;11.10;90.30
65046;DHT22;54657;52.022;5.534;2023-04-24T00:26:05;11.10;90.40
65046;DHT22;54657;52.022;5.534;2023-04-24T00:28:31;11.20;90.50
65046;DHT22;54657;52.022;5.534;2023-04-24T00:30:57;11.20;90.50
65046;DHT22;54657;52.022;5.534;2023-04-24T00:33:22;11.20;90.50
65046;DHT22;54657;52.022;5.534;2023-04-24T00:35:48;11.20;90.50
65046;DHT22;54657;52.022;5.534;2023-04-24T00:38:13;11.20;90.80
65046;DHT22;54657;52.022;5.534;2023-04-24T00:40:39;11.20;90.50
65046;DHT22;54657;52.022;5.534;2023-04-24T00:43:05;11.20;90.50
65046;DHT22;54657;52.022;5.534;2023-04-24T00:45:30;11.20;90.70
65046;DHT22;54657;52.022;5.534;2023-04-24T00:47:56;11.20;90.70
65046;DHT22;54657;52.022;5.534;2023-04-24T00:50:23;11.30;90.80
65046;DHT22;54657;52.022;5.534;2023-04-24T00:52:49;11.30;90.80
65046;DHT22;54657;52.022;5.534;2023-04-24T00:55:16;11.30;90.80
65046;DHT22;54657;52.022;5.534;2023-04-24T00:57:41;11.30;90.70
65046;DHT22;54657;52.022;5.534;2023-04-24T01:00:08;11.30;90.40
65046;DHT22;54657;52.022;5.534;2023-04-24T01:02:39;11.30;90.60
65046;DHT22;54657;52.022;5.534;2023-04-24T01:05:07;11.30;90.50
65046;DHT22;54657;52.022;5.534;2023-04-24T01:07:33;11.30;90.70
65046;DHT22;54657;52.022;5.534;2023-04-24T01:09:59;11.30;90.70
65046;DHT22;54657;52.022;5.534;2023-04-24T01:12:25;11.30;90.50
65046;DHT22;54657;52.022;5.534;2023-04-24T01:14:50;11.30;90.60
65046;DHT22;54657;52.022;5.534;2023-04-24T01:17:16;11.30;90.70
65046;DHT22;54657;52.022;5.534;2023-04-24T01:19:42;11.30;90.70
65046;DHT22;54657;52.022;5.534;2023-04-24T01:22:14;11.20;90.80
65046;DHT22;54657;52.022;5.534;2023-04-24T01:24:40;11.20;91.00
65046;DHT22;54657;52.022;5.534;2023-04-24T01:27:06;11.20;90.90
65046;DHT22;54657;52.022;5.534;2023-04-24T01:29:32;11.20;90.80
65046;DHT22;54657;52.022;5.534;2023-04-24T01:31:58;11.20;90.80
65046;DHT22;54657;52.022;5.534;2023-04-24T01:34:24;11.20;90.80
65046;DHT22;54657;52.022;5.534;2023-04-24T01:36:49;11.20;90.70
65046;DHT22;54657;52.022;5.534;2023-04-24T01:39:15;11.20;90.80
65046;DHT22;54657;52.022;5.534;2023-04-24T01:41:42;11.20;90.70
65046;DHT22;54657;52.022;5.534;2023-04-24T01:44:07;11.20;90.90
65046;DHT22;54657;52.022;5.534;2023-04-24T01:46:33;11.30;90.80
65046;DHT22;54657;52.022;5.534;2023-04-24T01:49:01;11.30;90.80
65046;DHT22;54657;52.022;5.534;2023-04-24T01:51:27;11.30;90.70
65046;DHT22;54657;52.022;5.534;2023-04-24T01:53:52;11.30;90.80
65046;DHT22;54657;52.022;5.534;2023-04-24T01:56:21;11.30;91.00
65046;DHT22;54657;52.022;5.534;2023-04-24T01:58:47;11.30;90.90
65046;DHT22;54657;52.022;5.534;2023-04-24T02:01:19;11.40;90.80
65046;DHT22;54657;52.022;5.534;2023-04-24T02:03:45;11.40;91.10
65046;DHT22;54657;52.022;5.534;2023-04-24T02:06:11;11.40;90.70
65046;DHT22;54657;52.022;5.534;2023-04-24T02:08:36;11.40;91.00
65046;DHT22;54657;52.022;5.534;2023-04-24T02:11:02;11.40;90.90
65046;DHT22;54657;52.022;5.534;2023-04-24T02:13:28;11.40;91.00
65046;DHT22;54657;52.022;5.534;2023-04-24T02:15:53;11.40;91.10
65046;DHT22;54657;52.022;5.534;2023-04-24T02:18:19;11.50;91.10
65046;DHT22;54657;52.022;5.534;2023-04-24T02:20:45;11.40;91.20
65046;DHT22;54657;52.022;5.534;2023-04-24T02:23:10;11.40;91.10
65046;DHT22;54657;52.022;5.534;2023-04-24T02:25:36;11.40;91.30
65046;DHT22;54657;52.022;5.534;2023-04-24T02:28:02;11.30;91.20
65046;DHT22;54657;52.022;5.534;2023-04-24T02:30:28;11.40;91.30
65046;DHT22;54657;52.022;5.534;2023-04-24T02:32:54;11.40;91.40
65046;DHT22;54657;52.022;5.534;2023-04-24T02:35:20;11.40;91.20
65046;DHT22;54657;52.022;5.534;2023-04-24T02:37:46;11.40;91.20
65046;DHT22;54657;52.022;5.534;2023-04-24T02:40:11;11.40;91.20
65046;DHT22;54657;52.022;5.534;2023-04-24T02:42:37;11.40;91.10
65046;DHT22;54657;52.022;5.534;2023-04-24T02:45:03;11.40;91.30
65046;DHT22;54657;52.022;5.534;2023-04-24T02:47:28;11.40;91.40
65046;DHT22;54657;52.022;5.534;2023-04-24T02:49:54;11.40;91.40
65046;DHT22;54657;52.022;5.534;2023-04-24T02:52:19;11.40;91.30
65046;DHT22;54657;52.022;5.534;2023-04-24T02:54:45;11.40;91.30
65046;DHT22;54657;52.022;5.534;2023-04-24T02:57:10;11.40;91.20
65046;DHT22;54657;52.022;5.534;2023-04-24T02:59:36;11.40;91.30
65046;DHT22;54657;52.022;5.534;2023-04-24T03:02:02;11.40;91.40
65046;DHT22;54657;52.022;5.534;2023-04-24T03:04:27;11.40;91.30
65046;DHT22;54657;52.022;5.534;2023-04-24T03:06:53;11.40;91.40
65046;DHT22;54657;52.022;5.534;2023-04-24T03:09:20;11.40;91.50
65046;DHT22;54657;52.022;5.534;2023-04-24T03:11:46;11.30;91.70
65046;DHT22;54657;52.022;5.534;2023-04-24T03:14:11;11.40;91.30
65046;DHT22;54657;52.022;5.534;2023-04-24T03:16:38;11.30;91.60
65046;DHT22;54657;52.022;5.534;2023-04-24T03:19:04;11.30;91.70
65046;DHT22;54657;52.022;5.534;2023-04-24T03:21:29;11.30;91.60
65046;DHT22;54657;52.022;5.534;2023-04-24T03:23:55;11.20;91.70
65046;DHT22;54657;52.022;5.534;2023-04-24T03:26:20;11.30;91.70
65046;DHT22;54657;52.022;5.534;2023-04-24T03:28:46;11.30;91.70
65046;DHT22;54657;52.022;5.534;2023-04-24T03:31:11;11.30;91.80
65046;DHT22;54657;52.022;5.534;2023-04-24T03:33:37;11.30;92.10
65046;DHT22;54657;52.022;5.534;2023-04-24T03:36:03;11.30;91.70
65046;DHT22;54657;52.022;5.534;2023-04-24T03:38:28;11.30;91.60
65046;DHT22;54657;52.022;5.534;2023-04-24T03:40:54;11.20;91.80
65046;DHT22;54657;52.022;5.534;2023-04-24T03:43:19;11.30;91.80
65046;DHT22;54657;52.022;5.534;2023-04-24T03:45:45;11.30;91.70
65046;DHT22;54657;52.022;5.534;2023-04-24T03:48:11;11.30;91.80
65046;DHT22;54657;52.022;5.534;2023-04-24T03:50:36;11.30;91.90
65046;DHT22;54657;52.022;5.534;2023-04-24T03:53:02;11.20;92.10
65046;DHT22;54657;52.022;5.534;2023-04-24T03:55:27;11.20;92.20
65046;DHT22;54657;52.022;5.534;2023-04-24T03:57:53;11.20;92.20
65046;DHT22;54657;52.022;5.534;2023-04-24T04:00:18;11.20;92.10
65046;DHT22;54657;52.022;5.534;2023-04-24T04:02:44;11.20;92.00
65046;DHT22;54657;52.022;5.534;2023-04-24T04:05:10;11.20;91.80
65046;DHT22;54657;52.022;5.534;2023-04-24T04:07:35;11.30;91.90
65046;DHT22;54657;52.022;5.534;2023-04-24T04:10:01;11.30;91.70
65046;DHT22;54657;52.022;5.534;2023-04-24T04:12:26;11.20;91.90
65046;DHT22;54657;52.022;5.534;2023-04-24T04:14:52;11.20;91.90
65046;DHT22;54657;52.022;5.534;2023-04-24T04:17:17;11.20;92.00
65046;DHT22;54657;52.022;5.534;2023-04-24T04:19:43;11.30;91.70
65046;DHT22;54657;52.022;5.534;2023-04-24T04:22:08;11.30;91.70
65046;DHT22;54657;52.022;5.534;2023-04-24T04:24:34;11.30;91.70
65046;DHT22;54657;52.022;5.534;2023-04-24T04:27:04;11.40;91.70
65046;DHT22;54657;52.022;5.534;2023-04-24T04:29:30;11.40;91.50
65046;DHT22;54657;52.022;5.534;2023-04-24T04:31:56;11.50;91.50
65046;DHT22;54657;52.022;5.534;2023-04-24T04:34:22;11.50;91.40
65046;DHT22;54657;52.022;5.534;2023-04-24T04:36:48;11.60;91.30
65046;DHT22;54657;52.022;5.534;2023-04-24T04:39:14;11.60;91.20
65046;DHT22;54657;52.022;5.534;2023-04-24T04:41:43;11.70;91.00
65046;DHT22;54657;52.022;5.534;2023-04-24T04:44:09;11.70;91.00
65046;DHT22;54657;52.022;5.534;2023-04-24T04:46:35;11.70;90.90
65046;DHT22;54657;52.022;5.534;2023-04-24T04:49:02;11.70;90.80
65046;DHT22;54657;52.022;5.534;2023-04-24T04:51:28;11.70;90.80
65046;DHT22;54657;52.022;5.534;2023-04-24T04:53:54;11.80;90.80
65046;DHT22;54657;52.022;5.534;2023-04-24T04:56:20;11.80;90.80
65046;DHT22;54657;52.022;5.534;2023-04-24T04:58:45;11.80;90.70
65046;DHT22;54657;52.022;5.534;2023-04-24T05:01:11;11.80;90.90
65046;DHT22;54657;52.022;5.534;2023-04-24T05:03:37;11.70;90.80
65046;DHT22;54657;52.022;5.534;2023-04-24T05:06:02;11.70;90.80
65046;DHT22;54657;52.022;5.534;2023-04-24T05:08:28;11.80;90.80
65046;DHT22;54657;52.022;5.534;2023-04-24T05:10:54;11.80;90.60
65046;DHT22;54657;52.022;5.534;2023-04-24T05:13:20;11.80;90.50
65046;DHT22;54657;52.022;5.534;2023-04-24T05:15:46;11.90;90.60
65046;DHT22;54657;52.022;5.534;2023-04-24T05:18:12;11.90;90.60
65046;DHT22;54657;52.022;5.534;2023-04-24T05:20:37;11.90;90.50
65046;DHT22;54657;52.022;5.534;2023-04-24T05:23:03;11.90;90.50
65046;DHT22;54657;52.022;5.534;2023-04-24T05:25:55;11.90;90.60
65046;DHT22;54657;52.022;5.534;2023-04-24T05:28:21;11.90;90.90
65046;DHT22;54657;52.022;5.534;2023-04-24T05:30:47;11.80;90.80
65046;DHT22;54657;52.022;5.534;2023-04-24T05:33:12;11.80;90.90
65046;DHT22;54657;52.022;5.534;2023-04-24T05:35:40;11.90;90.90
65046;DHT22;54657;52.022;5.534;2023-04-24T05:38:11;11.90;90.80
65046;DHT22;54657;52.022;5.534;2023-04-24T05:40:36;11.90;90.90
65046;DHT22;54657;52.022;5.534;2023-04-24T05:43:02;11.80;91.10
65046;DHT22;54657;52.022;5.534;2023-04-24T05:45:28;11.70;91.20
65046;DHT22;54657;52.022;5.534;2023-04-24T05:47:53;11.70;91.20
65046;DHT22;54657;52.022;5.534;2023-04-24T05:50:19;11.80;91.20
65046;DHT22;54657;52.022;5.534;2023-04-24T05:52:45;11.80;91.20
65046;DHT22;54657;52.022;5.534;2023-04-24T05:55:10;11.90;91.10
65046;DHT22;54657;52.022;5.534;2023-04-24T05:57:36;11.90;91.00
65046;DHT22;54657;52.022;5.534;2023-04-24T06:00:02;11.90;90.90
65046;DHT22;54657;52.022;5.534;2023-04-24T06:02:29;11.90;91.10
65046;DHT22;54657;52.022;5.534;2023-04-24T06:05:00;11.90;91.00
65046;DHT22;54657;52.022;5.534;2023-04-24T06:07:26;11.90;91.10
65046;DHT22;54657;52.022;5.534;2023-04-24T06:09:52;11.90;91.10
65046;DHT22;54657;52.022;5.534;2023-04-24T06:12:18;11.80;91.20
65046;DHT22;54657;52.022;5.534;2023-04-24T06:14:43;11.80;91.20
65046;DHT22;54657;52.022;5.534;2023-04-24T06:17:09;11.80;91.20
65046;DHT22;54657;52.022;5.534;2023-04-24T06:19:35;11.80;91.20
65046;DHT22;54657;52.022;5.534;2023-04-24T06:22:00;11.70;91.30
65046;DHT22;54657;52.022;5.534;2023-04-24T06:24:29;11.70;91.30
65046;DHT22;54657;52.022;5.534;2023-04-24T06:26:54;11.70;91.40
65046;DHT22;54657;52.022;5.534;2023-04-24T06:29:20;11.70;91.30
65046;DHT22;54657;52.022;5.534;2023-04-24T06:31:45;11.70;91.40
65046;DHT22;54657;52.022;5.534;2023-04-24T06:34:11;11.60;91.50
65046;DHT22;54657;52.022;5.534;2023-04-24T06:36:36;11.50;91.60
65046;DHT22;54657;52.022;5.534;2023-04-24T06:39:02;11.50;91.70
65046;DHT22;54657;52.022;5.534;2023-04-24T06:41:28;11.50;91.60
65046;DHT22;54657;52.022;5.534;2023-04-24T06:43:54;11.50;91.60
65046;DHT22;54657;52.022;5.534;2023-04-24T06:46:20;11.40;91.60
65046;DHT22;54657;52.022;5.534;2023-04-24T06:48:49;11.40;91.60
65046;DHT22;54657;52.022;5.534;2023-04-24T06:51:15;11.40;91.70
65046;DHT22;54657;52.022;5.534;2023-04-24T06:53:42;11.40;91.60
65046;DHT22;54657;52.022;5.534;2023-04-24T06:56:08;11.40;91.50
65046;DHT22;54657;52.022;5.534;2023-04-24T06:58:34;11.30;91.50
65046;DHT22;54657;52.022;5.534;2023-04-24T07:00:59;11.20;91.80
65046;DHT22;54657;52.022;5.534;2023-04-24T07:03:25;11.10;91.90
65046;DHT22;54657;52.022;5.534;2023-04-24T07:05:51;11.00;92.00
65046;DHT22;54657;52.022;5.534;2023-04-24T07:08:16;10.90;92.10
65046;DHT22;54657;52.022;5.534;2023-04-24T07:10:43;10.80;92.10
65046;DHT22;54657;52.022;5.534;2023-04-24T07:13:10;10.70;92.40
65046;DHT22;54657;52.022;5.534;2023-04-24T07:15:35;10.70;92.50
65046;DHT22;54657;52.022;5.534;2023-04-24T07:18:01;10.60;92.60
65046;DHT22;54657;52.022;5.534;2023-04-24T07:20:26;10.60;92.60
65046;DHT22;54657;52.022;5.534;2023-04-24T07:22:52;10.50;93.00
65046;DHT22;54657;52.022;5.534;2023-04-24T07:25:19;10.40;92.80
65046;DHT22;54657;52.022;5.534;2023-04-24T07:27:45;10.50;92.90
65046;DHT22;54657;52.022;5.534;2023-04-24T07:30:11;10.30;93.00
65046;DHT22;54657;52.022;5.534;2023-04-24T07:32:36;10.30;93.10
65046;DHT22;54657;52.022;5.534;2023-04-24T07:35:02;10.30;93.00
65046;DHT22;54657;52.022;5.534;2023-04-24T07:37:28;10.20;93.00
65046;DHT22;54657;52.022;5.534;2023-04-24T07:39:54;10.20;93.10
65046;DHT22;54657;52.022;5.534;2023-04-24T07:42:20;10.20;92.90
65046;DHT22;54657;52.022;5.534;2023-04-24T07:44:45;10.20;92.70
65046;DHT22;54657;52.022;5.534;2023-04-24T07:47:13;10.10;92.90
65046;DHT22;54657;52.022;5.534;2023-04-24T07:49:41;10.10;92.90
65046;DHT22;54657;52.022;5.534;2023-04-24T07:52:07;10.00;92.80
65046;DHT22;54657;52.022;5.534;2023-04-24T07:54:32;10.00;92.90
65046;DHT22;54657;52.022;5.534;2023-04-24T07:56:58;10.00;92.90
65046;DHT22;54657;52.022;5.534;2023-04-24T07:59:24;10.10;92.90
65046;DHT22;54657;52.022;5.534;2023-04-24T08:01:49;10.10;92.70
65046;DHT22;54657;52.022;5.534;2023-04-24T08:04:15;10.10;92.80
65046;DHT22;54657;52.022;5.534;2023-04-24T08:06:40;10.10;92.70
65046;DHT22;54657;52.022;5.534;2023-04-24T08:09:06;10.10;92.60
65046;DHT22;54657;52.022;5.534;2023-04-24T08:11:32;10.10;92.70
65046;DHT22;54657;52.022;5.534;2023-04-24T08:13:58;10.10;92.60
65046;DHT22;54657;52.022;5.534;2023-04-24T08:16:23;10.10;92.70
65046;DHT22;54657;52.022;5.534;2023-04-24T08:18:49;10.10;92.70
65046;DHT22;54657;52.022;5.534;2023-04-24T08:21:15;10.20;92.60
65046;DHT22;54657;52.022;5.534;2023-04-24T08:23:42;10.20;92.80
65046;DHT22;54657;52.022;5.534;2023-04-24T08:26:08;10.20;92.60
65046;DHT22;54657;52.022;5.534;2023-04-24T08:28:34;10.30;92.70
65046;DHT22;54657;52.022;5.534;2023-04-24T08:30:59;10.30;92.50
65046;DHT22;54657;52.022;5.534;2023-04-24T08:33:25;10.20;92.60
65046;DHT22;54657;52.022;5.534;2023-04-24T08:35:51;10.20;92.50
65046;DHT22;54657;52.022;5.534;2023-04-24T08:38:16;10.20;92.70
65046;DHT22;54657;52.022;5.534;2023-04-24T08:40:42;10.10;93.00
65046;DHT22;54657;52.022;5.534;2023-04-24T08:43:08;10.00;93.00
65046;DHT22;54657;52.022;5.534;2023-04-24T08:45:35;10.00;93.10
65046;DHT22;54657;52.022;5.534;2023-04-24T08:48:02;10.00;93.10
65046;DHT22;54657;52.022;5.534;2023-04-24T08:50:29;10.00;93.10
65046;DHT22;54657;52.022;5.534;2023-04-24T08:52:58;10.00;93.00
65046;DHT22;54657;52.022;5.534;2023-04-24T08:55:24;10.10;92.90
65046;DHT22;54657;52.022;5.534;2023-04-24T08:57:52;10.00;92.80
65046;DHT22;54657;52.022;5.534;2023-04-24T09:00:20;10.00;92.80
65046;DHT22;54657;52.022;5.534;2023-04-24T09:02:47;10.00;92.60
65046;DHT22;54657;52.022;5.534;2023-04-24T09:05:14;10.00;92.50
65046;DHT22;54657;52.022;5.534;2023-04-24T09:07:45;10.10;92.20
65046;DHT22;54657;52.022;5.534;2023-04-24T09:10:15;10.10;92.20
65046;DHT22;54657;52.022;5.534;2023-04-24T09:12:41;10.10;91.90
65046;DHT22;54657;52.022;5.534;2023-04-24T09:15:08;10.10;91.90
65046;DHT22;54657;52.022;5.534;2023-04-24T09:17:33;10.10;92.00
65046;DHT22;54657;52.022;5.534;2023-04-24T09:20:00;10.20;92.00
65046;DHT22;54657;52.022;5.534;2023-04-24T09:22:30;10.20;91.80
65046;DHT22;54657;52.022;5.534;2023-04-24T09:25:06;10.30;91.70
65046;DHT22;54657;52.022;5.534;2023-04-24T09:27:33;10.30;91.50
65046;DHT22;54657;52.022;5.534;2023-04-24T09:30:00;10.30;91.30
65046;DHT22;54657;52.022;5.534;2023-04-24T09:32:26;10.30;91.30
65046;DHT22;54657;52.022;5.534;2023-04-24T09:35:14;10.30;91.30
65046;DHT22;54657;52.022;5.534;2023-04-24T09:37:46;10.30;91.40
65046;DHT22;54657;52.022;5.534;2023-04-24T09:40:19;10.30;91.10
65046;DHT22;54657;52.022;5.534;2023-04-24T09:45:12;10.30;91.10
65046;DHT22;54657;52.022;5.534;2023-04-24T09:47:41;10.30;91.20
65046;DHT22;54657;52.022;5.534;2023-04-24T09:50:17;10.40;91.20
65046;DHT22;54657;52.022;5.534;2023-04-24T09:53:01;10.60;91.30
65046;DHT22;54657;52.022;5.534;2023-04-24T09:55:28;10.70;91.10
65046;DHT22;54657;52.022;5.534;2023-04-24T09:57:57;10.80;90.90
65046;DHT22;54657;52.022;5.534;2023-04-24T10:00:31;10.90;90.80
65046;DHT22;54657;52.022;5.534;2023-04-24T10:03:02;11.00;90.60
65046;DHT22;54657;52.022;5.534;2023-04-24T10:05:36;11.10;90.60
65046;DHT22;54657;52.022;5.534;2023-04-24T10:08:10;11.20;90.20
65046;DHT22;54657;52.022;5.534;2023-04-24T10:10:42;11.20;89.80
65046;DHT22;54657;52.022;5.534;2023-04-24T10:13:09;11.30;89.10
65046;DHT22;54657;52.022;5.534;2023-04-24T10:15:39;11.20;89.00
65046;DHT22;54657;52.022;5.534;2023-04-24T10:18:06;11.20;89.00
65046;DHT22;54657;52.022;5.534;2023-04-24T10:20:35;11.10;88.70
65046;DHT22;54657;52.022;5.534;2023-04-24T10:23:01;11.10;88.20
65046;DHT22;54657;52.022;5.534;2023-04-24T10:25:29;11.20;88.60
65046;DHT22;54657;52.022;5.534;2023-04-24T10:27:56;11.20;87.80
65046;DHT22;54657;52.022;5.534;2023-04-24T10:30:25;11.30;88.00
65046;DHT22;54657;52.022;5.534;2023-04-24T10:32:50;11.30;87.70
65046;DHT22;54657;52.022;5.534;2023-04-24T10:35:17;11.40;88.00
65046;DHT22;54657;52.022;5.534;2023-04-24T10:37:50;11.40;87.60
65046;DHT22;54657;52.022;5.534;2023-04-24T10:40:18;11.40;86.30
65046;DHT22;54657;52.022;5.534;2023-04-24T10:42:47;11.20;86.50
65046;DHT22;54657;52.022;5.534;2023-04-24T10:45:21;11.10;87.10
65046;DHT22;54657;52.022;5.534;2023-04-24T10:47:57;11.00;87.60
65046;DHT22;54657;52.022;5.534;2023-04-24T10:50:26;11.00;87.80
65046;DHT22;54657;52.022;5.534;2023-04-24T10:52:52;11.00;88.70
65046;DHT22;54657;52.022;5.534;2023-04-24T10:55:46;11.20;88.40
65046;DHT22;54657;52.022;5.534;2023-04-24T10:58:11;11.30;87.00
65046;DHT22;54657;52.022;5.534;2023-04-24T11:00:41;11.30;87.60
65046;DHT22;54657;52.022;5.534;2023-04-24T11:03:28;11.40;87.10
65046;DHT22;54657;52.022;5.534;2023-04-24T11:08:28;11.50;84.80
65046;DHT22;54657;52.022;5.534;2023-04-24T11:11:09;11.50;86.70
65046;DHT22;54657;52.022;5.534;2023-04-24T11:14:02;11.70;86.30
65046;DHT22;54657;52.022;5.534;2023-04-24T11:16:33;11.80;85.10
65046;DHT22;54657;52.022;5.534;2023-04-24T11:21:47;11.80;85.10
65046;DHT22;54657;52.022;5.534;2023-04-24T11:24:24;11.90;84.90
65046;DHT22;54657;52.022;5.534;2023-04-24T11:26:54;11.90;84.50
65046;DHT22;54657;52.022;5.534;2023-04-24T11:29:21;11.90;84.80
65046;DHT22;54657;52.022;5.534;2023-04-24T11:31:49;12.00;85.10
65046;DHT22;54657;52.022;5.534;2023-04-24T11:34:17;11.90;84.20
65046;DHT22;54657;52.022;5.534;2023-04-24T11:36:44;11.90;84.50
65046;DHT22;54657;52.022;5.534;2023-04-24T11:39:10;11.70;85.20
65046;DHT22;54657;52.022;5.534;2023-04-24T11:41:37;11.60;86.00
65046;DHT22;54657;52.022;5.534;2023-04-24T11:44:03;11.60;86.00
65046;DHT22;54657;52.022;5.534;2023-04-24T11:46:31;11.40;86.40
65046;DHT22;54657;52.022;5.534;2023-04-24T11:48:58;11.20;87.10
65046;DHT22;54657;52.022;5.534;2023-04-24T11:51:27;11.10;87.90
65046;DHT22;54657;52.022;5.534;2023-04-24T11:53:54;11.00;88.30
65046;DHT22;54657;52.022;5.534;2023-04-24T11:56:22;10.90;88.40
65046;DHT22;54657;52.022;5.534;2023-04-24T11:58:48;10.80;88.80
65046;DHT22;54657;52.022;5.534;2023-04-24T12:01:13;10.80;89.00
65046;DHT22;54657;52.022;5.534;2023-04-24T12:03:39;10.90;88.40
65046;DHT22;54657;52.022;5.534;2023-04-24T12:06:10;11.00;88.70
65046;DHT22;54657;52.022;5.534;2023-04-24T12:08:36;11.10;87.70
65046;DHT22;54657;52.022;5.534;2023-04-24T12:11:03;11.20;88.00
65046;DHT22;54657;52.022;5.534;2023-04-24T12:13:30;11.40;87.10
65046;DHT22;54657;52.022;5.534;2023-04-24T12:15:59;11.50;86.40
65046;DHT22;54657;52.022;5.534;2023-04-24T12:18:26;11.70;85.90
65046;DHT22;54657;52.022;5.534;2023-04-24T12:20:52;11.80;84.60
65046;DHT22;54657;52.022;5.534;2023-04-24T12:23:34;11.90;84.70
65046;DHT22;54657;52.022;5.534;2023-04-24T12:26:03;12.00;81.50
65046;DHT22;54657;52.022;5.534;2023-04-24T12:28:35;12.00;83.10
65046;DHT22;54657;52.022;5.534;2023-04-24T12:31:01;12.00;82.30
65046;DHT22;54657;52.022;5.534;2023-04-24T12:33:27;12.00;83.00
65046;DHT22;54657;52.022;5.534;2023-04-24T12:35:54;11.80;82.40
65046;DHT22;54657;52.022;5.534;2023-04-24T12:38:24;11.70;82.70
65046;DHT22;54657;52.022;5.534;2023-04-24T12:41:02;11.80;82.80
65046;DHT22;54657;52.022;5.534;2023-04-24T12:43:30;11.90;82.10
65046;DHT22;54657;52.022;5.534;2023-04-24T12:45:55;12.00;83.00
65046;DHT22;54657;52.022;5.534;2023-04-24T12:48:22;12.10;83.00
65046;DHT22;54657;52.022;5.534;2023-04-24T12:50:48;12.20;82.30
65046;DHT22;54657;52.022;5.534;2023-04-24T12:53:14;12.30;81.90
65046;DHT22;54657;52.022;5.534;2023-04-24T12:55:39;12.30;81.90
65046;DHT22;54657;52.022;5.534;2023-04-24T12:58:05;12.20;80.60
65046;DHT22;54657;52.022;5.534;2023-04-24T13:00:31;12.20;81.30
65046;DHT22;54657;52.022;5.534;2023-04-24T13:02:57;12.20;81.20
65046;DHT22;54657;52.022;5.534;2023-04-24T13:05:22;12.10;81.60
65046;DHT22;54657;52.022;5.534;2023-04-24T13:07:48;12.10;81.00
65046;DHT22;54657;52.022;5.534;2023-04-24T13:10:13;12.10;81.30
65046;DHT22;54657;52.022;5.534;2023-04-24T13:12:39;12.00;81.70
65046;DHT22;54657;52.022;5.534;2023-04-24T13:15:06;12.10;81.40
65046;DHT22;54657;52.022;5.534;2023-04-24T13:17:32;12.10;81.20
65046;DHT22;54657;52.022;5.534;2023-04-24T13:19:58;12.10;81.00
65046;DHT22;54657;52.022;5.534;2023-04-24T13:22:24;12.20;81.00
65046;DHT22;54657;52.022;5.534;2023-04-24T13:24:50;12.10;80.40
65046;DHT22;54657;52.022;5.534;2023-04-24T13:27:16;12.10;80.60
65046;DHT22;54657;52.022;5.534;2023-04-24T13:29:42;12.00;80.60
65046;DHT22;54657;52.022;5.534;2023-04-24T13:32:08;11.90;80.90
65046;DHT22;54657;52.022;5.534;2023-04-24T13:34:34;11.70;81.60
65046;DHT22;54657;52.022;5.534;2023-04-24T13:37:00;11.80;82.10
65046;DHT22;54657;52.022;5.534;2023-04-24T13:39:26;11.80;81.00
65046;DHT22;54657;52.022;5.534;2023-04-24T13:41:52;11.90;79.90
65046;DHT22;54657;52.022;5.534;2023-04-24T13:44:19;12.00;79.90
65046;DHT22;54657;52.022;5.534;2023-04-24T13:46:46;12.10;77.80
65046;DHT22;54657;52.022;5.534;2023-04-24T13:49:13;12.10;77.90
65046;DHT22;54657;52.022;5.534;2023-04-24T13:51:39;12.10;77.40
65046;DHT22;54657;52.022;5.534;2023-04-24T13:54:05;12.10;78.20
65046;DHT22;54657;52.022;5.534;2023-04-24T13:56:31;12.10;77.70
65046;DHT22;54657;52.022;5.534;2023-04-24T13:58:56;12.20;77.40
65046;DHT22;54657;52.022;5.534;2023-04-24T14:01:23;12.30;76.50
65046;DHT22;54657;52.022;5.534;2023-04-24T14:03:53;12.30;76.20
65046;DHT22;54657;52.022;5.534;2023-04-24T14:06:19;12.40;75.70
65046;DHT22;54657;52.022;5.534;2023-04-24T14:08:45;12.50;74.50
65046;DHT22;54657;52.022;5.534;2023-04-24T14:11:10;12.60;73.60
65046;DHT22;54657;52.022;5.534;2023-04-24T14:13:37;12.60;74.10
65046;DHT22;54657;52.022;5.534;2023-04-24T14:16:03;12.80;74.40
65046;DHT22;54657;52.022;5.534;2023-04-24T14:18:29;12.90;73.70
65046;DHT22;54657;52.022;5.534;2023-04-24T14:20:55;12.90;73.30
65046;DHT22;54657;52.022;5.534;2023-04-24T14:23:20;12.70;73.20
65046;DHT22;54657;52.022;5.534;2023-04-24T14:25:46;12.60;73.00
65046;DHT22;54657;52.022;5.534;2023-04-24T14:28:16;12.60;72.90
65046;DHT22;54657;52.022;5.534;2023-04-24T14:30:42;12.50;71.60
65046;DHT22;54657;52.022;5.534;2023-04-24T14:33:07;12.50;73.10
65046;DHT22;54657;52.022;5.534;2023-04-24T14:35:33;12.40;72.00
65046;DHT22;54657;52.022;5.534;2023-04-24T14:38:02;12.40;72.60
65046;DHT22;54657;52.022;5.534;2023-04-24T14:40:28;12.40;73.10
65046;DHT22;54657;52.022;5.534;2023-04-24T14:42:53;12.30;72.30
65046;DHT22;54657;52.022;5.534;2023-04-24T14:45:19;12.30;71.40
65046;DHT22;54657;52.022;5.534;2023-04-24T14:47:45;12.20;72.90
65046;DHT22;54657;52.022;5.534;2023-04-24T14:50:10;12.20;73.00
65046;DHT22;54657;52.022;5.534;2023-04-24T14:52:37;12.20;73.50
65046;DHT22;54657;52.022;5.534;2023-04-24T14:55:03;12.20;72.60
65046;DHT22;54657;52.022;5.534;2023-04-24T14:57:29;12.20;73.00
65046;DHT22;54657;52.022;5.534;2023-04-24T14:59:54;12.30;72.80
65046;DHT22;54657;52.022;5.534;2023-04-24T15:02:20;12.30;72.50
65046;DHT22;54657;52.022;5.534;2023-04-24T15:05:11;12.30;72.20
65046;DHT22;54657;52.022;5.534;2023-04-24T15:07:37;12.30;69.80
65046;DHT22;54657;52.022;5.534;2023-04-24T15:10:03;12.20;72.10
65046;DHT22;54657;52.022;5.534;2023-04-24T15:12:29;12.00;72.30
65046;DHT22;54657;52.022;5.534;2023-04-24T15:14:55;11.90;73.10
65046;DHT22;54657;52.022;5.534;2023-04-24T15:17:20;11.80;73.50
65046;DHT22;54657;52.022;5.534;2023-04-24T15:19:46;11.70;74.00
65046;DHT22;54657;52.022;5.534;2023-04-24T15:22:12;11.80;74.00
65046;DHT22;54657;52.022;5.534;2023-04-24T15:24:37;11.80;73.90
65046;DHT22;54657;52.022;5.534;2023-04-24T15:27:03;11.90;74.50
65046;DHT22;54657;52.022;5.534;2023-04-24T15:29:31;12.00;74.50
65046;DHT22;54657;52.022;5.534;2023-04-24T15:31:57;12.00;74.60
65046;DHT22;54657;52.022;5.534;2023-04-24T15:34:23;12.00;74.90
65046;DHT22;54657;52.022;5.534;2023-04-24T15:36:49;12.10;74.60